Terminal Aerodrome Forecast
Issued by NWS Duluth, MN

Home | Current Version | Previous Version | Text Only | Print | Product List | Glossary On
Versions: 1 2 3 4 5 6 7 8 9 10 11 12 13 14 15 16 17 18 19 20 21 22 23
000
FTUS43 KDLH 290538
TAFINL
TAF
KINL 290538Z 2906/3006 20012G18KT P6SM SCT060
     FM290800 23012G20KT P6SM OVC050 WS010/24040KT
     FM291200 24015G38KT P6SM -RA BKN025 OVC040
     FM291500 26020G35KT P6SM -RA OVC025
     FM292200 28018G30KT P6SM VCSH OVC050
     FM300300 30012KT P6SM SCT050=

USA.gov is the U.S. government's official web portal to all federal, state and local government web resources and services.